Time;durP1;ratioP1;P1;durP2;ratioP2;P2;SDS_P1;SDS_P2;PMS_P1;PMS_P2;Temp;Humidity;BMP_temperature;BMP_pressure;BME280_temperature;BME280_humidity;BME280_pressure;Samples;Min_cycle;Max_cycle;Signal;HPM_P1;HPM_P2
2022/02/26 00:00:38;;;;;;;4.25;2.25;;;;;;;;;;5063224;28;20198;-76
2022/02/26 00:03:05;;;;;;;5.25;2.40;;;;;;;;;;5062669;28;20190;-76
2022/02/26 00:05:32;;;;;;;7.75;3.70;;;;;;;;;;5070028;28;20201;-78
2022/02/26 00:07:59;;;;;;;4.82;2.17;;;;;;;;;;5070060;28;20285;-75
2022/02/26 00:10:27;;;;;;;4.15;2.00;;;;;;;;;;5068093;28;20195;-77
2022/02/26 00:12:55;;;;;;;4.35;2.35;;;;;;;;;;5070266;28;20641;-76
2022/02/26 00:15:22;;;;;;;5.45;3.20;;;;;;;;;;5060162;28;20294;-74
2022/02/26 00:17:50;;;;;;;7.93;2.45;;;;;;;;;;5071995;28;20194;-75
2022/02/26 00:20:17;;;;;;;7.45;2.70;;;;;;;;;;5066704;28;20201;-75
2022/02/26 00:22:44;;;;;;;3.88;2.10;;;;;;;;;;5071525;28;20190;-74
2022/02/26 00:25:12;;;;;;;12.57;3.78;;;;;;;;;;5058972;28;20214;-74
2022/02/26 00:27:40;;;;;;;4.85;2.72;;;;;;;;;;5056075;28;20548;-75
2022/02/26 00:30:08;;;;;;;6.53;2.63;;;;;;;;;;5055473;28;20203;-75
2022/02/26 00:32:35;;;;;;;7.15;3.35;;;;;;;;;;5070741;28;20683;-75
2022/02/26 00:35:02;;;;;;;3.30;2.63;;;;;;;;;;5060711;28;20199;-74
2022/02/26 00:37:29;;;;;;;4.55;2.38;;;;;;;;;;5054241;28;20217;-75
2022/02/26 00:39:56;;;;;;;7.47;3.20;;;;;;;;;;5064969;28;20684;-75
2022/02/26 00:42:23;;;;;;;3.45;2.42;;;;;;;;;;5065557;28;20202;-75
2022/02/26 00:44:51;;;;;;;8.95;2.22;;;;;;;;;;5065674;28;20195;-75
2022/02/26 00:47:18;;;;;;;4.28;2.33;;;;;;;;;;5068607;28;20218;-77
2022/02/26 00:49:47;;;;;;;5.18;2.63;;;;;;;;;;5066534;28;20209;-75
2022/02/26 00:52:15;;;;;;;4.45;2.30;;;;;;;;;;5071144;28;20221;-77
2022/02/26 00:54:42;;;;;;;3.20;2.20;;;;;;;;;;5068973;28;20683;-74
2022/02/26 00:57:09;;;;;;;6.50;3.00;;;;;;;;;;5054305;28;20203;-75
2022/02/26 00:59:36;;;;;;;4.32;2.55;;;;;;;;;;5054077;28;20542;-75
2022/02/26 01:02:05;;;;;;;11.75;2.00;;;;;;;;;;5068077;28;20573;-75
2022/02/26 01:04:32;;;;;;;3.92;2.35;;;;;;;;;;5059145;28;20195;-76
2022/02/26 01:06:59;;;;;;;5.68;2.35;;;;;;;;;;5065869;28;20229;-76
2022/02/26 01:09:27;;;;;;;6.10;2.67;;;;;;;;;;5065888;28;20206;-75
2022/02/26 01:11:54;;;;;;;4.88;2.55;;;;;;;;;;5066152;28;20194;-76
2022/02/26 01:14:21;;;;;;;7.22;2.72;;;;;;;;;;5066792;28;20191;-75
2022/02/26 01:16:49;;;;;;;9.32;2.88;;;;;;;;;;5061098;28;20210;-75
2022/02/26 01:19:17;;;;;;;9.98;2.72;;;;;;;;;;5066543;28;20591;-75
2022/02/26 01:21:44;;;;;;;6.70;2.50;;;;;;;;;;5062803;28;20194;-75
2022/02/26 01:24:11;;;;;;;6.72;1.80;;;;;;;;;;5068943;28;20202;-79
2022/02/26 01:26:38;;;;;;;6.85;3.05;;;;;;;;;;5066283;28;20352;-76
2022/02/26 01:29:05;;;;;;;3.55;2.15;;;;;;;;;;5060788;28;20214;-78
2022/02/26 01:31:33;;;;;;;6.05;2.47;;;;;;;;;;5067816;28;20558;-78
2022/02/26 01:34:01;;;;;;;3.65;2.35;;;;;;;;;;5058403;28;20370;-76
2022/02/26 01:36:29;;;;;;;4.20;2.17;;;;;;;;;;5055386;28;20246;-75
2022/02/26 01:38:56;;;;;;;4.15;2.38;;;;;;;;;;5068623;28;20202;-76
2022/02/26 01:41:24;;;;;;;4.38;2.10;;;;;;;;;;5067696;28;20289;-78
2022/02/26 01:43:51;;;;;;;5.22;1.60;;;;;;;;;;5067192;28;20225;-77
2022/02/26 01:46:18;;;;;;;6.55;2.70;;;;;;;;;;5060935;28;21673;-75
2022/02/26 01:48:45;;;;;;;3.47;2.08;;;;;;;;;;5061735;28;20823;-80
2022/02/26 01:51:13;;;;;;;11.95;4.78;;;;;;;;;;5060243;28;20194;-76
2022/02/26 01:53:41;;;;;;;3.00;2.63;;;;;;;;;;5070259;28;20194;-75
2022/02/26 01:56:09;;;;;;;5.53;2.33;;;;;;;;;;5061670;28;20241;-74
2022/02/26 01:58:37;;;;;;;4.53;2.35;;;;;;;;;;5068555;28;20194;-75
2022/02/26 02:01:04;;;;;;;4.40;2.03;;;;;;;;;;5067554;28;20193;-76
2022/02/26 02:03:31;;;;;;;4.60;2.10;;;;;;;;;;5070295;28;20191;-79
2022/02/26 02:05:59;;;;;;;6.50;2.40;;;;;;;;;;5058165;28;20199;-74
2022/02/26 02:08:26;;;;;;;7.03;1.92;;;;;;;;;;5067067;28;20225;-75
2022/02/26 02:10:56;;;;;;;8.60;2.60;;;;;;;;;;5060230;28;20201;-75
2022/02/26 02:13:23;;;;;;;7.70;2.15;;;;;;;;;;5065991;28;20285;-74
2022/02/26 02:15:53;;;;;;;12.98;2.45;;;;;;;;;;5062952;28;20202;-76
2022/02/26 02:18:20;;;;;;;7.20;2.20;;;;;;;;;;5066011;28;20205;-75
2022/02/26 02:20:47;;;;;;;4.60;1.98;;;;;;;;;;5051243;28;20566;-75
2022/02/26 02:23:16;;;;;;;5.63;1.83;;;;;;;;;;5061402;28;20202;-76
2022/02/26 02:25:43;;;;;;;7.05;2.38;;;;;;;;;;5061340;28;20222;-77
2022/02/26 02:28:10;;;;;;;6.32;3.35;;;;;;;;;;5069562;28;20726;-76
2022/02/26 02:30:38;;;;;;;5.57;2.00;;;;;;;;;;5065193;28;20740;-77
2022/02/26 02:33:06;;;;;;;9.82;2.60;;;;;;;;;;5055714;28;20190;-76
2022/02/26 02:35:33;;;;;;;5.63;2.60;;;;;;;;;;5056497;28;20201;-79
2022/02/26 02:38:03;;;;;;;4.55;1.90;;;;;;;;;;5062166;28;20203;-76
2022/02/26 02:40:31;;;;;;;6.15;3.00;;;;;;;;;;5063962;28;20550;-75
2022/02/26 02:42:59;;;;;;;5.03;2.35;;;;;;;;;;5066958;28;20205;-76
2022/02/26 02:45:26;;;;;;;6.53;2.40;;;;;;;;;;5072117;28;20220;-75
2022/02/26 02:47:53;;;;;;;2.47;1.63;;;;;;;;;;5060484;28;20702;-75
2022/02/26 02:50:20;;;;;;;5.40;2.35;;;;;;;;;;5067784;28;20199;-76
2022/02/26 02:52:48;;;;;;;5.57;2.05;;;;;;;;;;5063316;28;20259;-78
2022/02/26 02:55:15;;;;;;;4.78;2.20;;;;;;;;;;5054009;28;20264;-80
2022/02/26 02:57:44;;;;;;;11.15;2.72;;;;;;;;;;5068542;28;20194;-75
2022/02/26 03:00:12;;;;;;;3.58;2.25;;;;;;;;;;5065369;28;20256;-76
2022/02/26 03:02:39;;;;;;;5.30;2.83;;;;;;;;;;5068071;28;20190;-76
2022/02/26 03:05:07;;;;;;;7.03;2.47;;;;;;;;;;5063271;28;20249;-74
2022/02/26 03:07:34;;;;;;;8.43;2.58;;;;;;;;;;5068568;28;20197;-75
2022/02/26 03:10:01;;;;;;;8.02;2.47;;;;;;;;;;5066255;28;20193;-76
2022/02/26 03:12:28;;;;;;;5.22;2.40;;;;;;;;;;5056085;28;20198;-76
2022/02/26 03:14:57;;;;;;;8.73;3.25;;;;;;;;;;5059955;28;20191;-76
2022/02/26 03:17:24;;;;;;;5.07;1.92;;;;;;;;;;5071657;28;20200;-76
2022/02/26 03:19:51;;;;;;;5.97;3.15;;;;;;;;;;5060631;28;20202;-79
2022/02/26 03:22:18;;;;;;;6.50;2.65;;;;;;;;;;5067121;28;20190;-75
2022/02/26 03:24:45;;;;;;;8.88;2.60;;;;;;;;;;5063484;28;20210;-83
2022/02/26 03:27:13;;;;;;;10.32;2.20;;;;;;;;;;5062389;28;20194;-75
2022/02/26 03:29:40;;;;;;;8.98;2.40;;;;;;;;;;5072302;28;20217;-76
2022/02/26 03:32:10;;;;;;;3.60;2.25;;;;;;;;;;5064697;28;20654;-76
2022/02/26 03:34:37;;;;;;;7.57;2.58;;;;;;;;;;5063417;28;20252;-77
2022/02/26 03:37:05;;;;;;;3.30;1.80;;;;;;;;;;5067797;28;20676;-78
2022/02/26 03:39:33;;;;;;;5.38;2.20;;;;;;;;;;5063830;28;20194;-77
2022/02/26 03:42:01;;;;;;;4.00;2.40;;;;;;;;;;5066243;28;20220;-77
2022/02/26 03:44:28;;;;;;;2.30;2.10;;;;;;;;;;5065475;28;20240;-84
2022/02/26 03:46:55;;;;;;;4.25;2.15;;;;;;;;;;5056909;28;20665;-78
2022/02/26 03:49:24;;;;;;;4.82;2.78;;;;;;;;;;5060855;28;20596;-77
2022/02/26 03:51:51;;;;;;;3.65;2.20;;;;;;;;;;5059090;28;20260;-77
2022/02/26 03:54:18;;;;;;;5.22;2.53;;;;;;;;;;5073413;28;20535;-79
2022/02/26 03:56:45;;;;;;;7.30;2.50;;;;;;;;;;5059070;28;20563;-75
2022/02/26 03:59:12;;;;;;;4.57;2.25;;;;;;;;;;5071149;28;20542;-75
2022/02/26 04:01:40;;;;;;;5.15;2.85;;;;;;;;;;5067807;28;20203;-75
2022/02/26 04:04:07;;;;;;;4.70;2.75;;;;;;;;;;5060298;28;20194;-75
2022/02/26 04:06:35;;;;;;;5.25;3.08;;;;;;;;;;5058830;28;20191;-78
2022/02/26 04:09:03;;;;;;;7.65;2.55;;;;;;;;;;5066844;28;20229;-75
2022/02/26 04:11:30;;;;;;;6.90;2.30;;;;;;;;;;5061644;28;20213;-75
2022/02/26 04:13:57;;;;;;;4.47;2.60;;;;;;;;;;5065925;28;20206;-74
2022/02/26 04:16:24;;;;;;;5.28;2.60;;;;;;;;;;5066432;28;20593;-75
2022/02/26 04:18:51;;;;;;;7.20;2.42;;;;;;;;;;5065416;28;20209;-79
2022/02/26 04:21:18;;;;;;;6.80;2.20;;;;;;;;;;5064007;28;20191;-76
2022/02/26 04:23:47;;;;;;;4.15;2.88;;;;;;;;;;5063112;28;20191;-76
2022/02/26 04:26:14;;;;;;;4.50;2.47;;;;;;;;;;5057844;28;20229;-75
2022/02/26 04:28:41;;;;;;;4.65;2.90;;;;;;;;;;5062777;28;20229;-77
2022/02/26 04:31:08;;;;;;;8.48;2.58;;;;;;;;;;5068943;28;20191;-75
2022/02/26 04:33:35;;;;;;;8.45;2.80;;;;;;;;;;5068494;28;20186;-79
2022/02/26 04:36:02;;;;;;;7.20;3.67;;;;;;;;;;5060706;28;20195;-75
2022/02/26 04:38:29;;;;;;;5.65;2.35;;;;;;;;;;5063047;28;20198;-75
2022/02/26 04:40:58;;;;;;;7.53;3.05;;;;;;;;;;5062348;28;20564;-75
2022/02/26 04:43:25;;;;;;;5.85;2.97;;;;;;;;;;5070087;28;20213;-76
2022/02/26 04:45:52;;;;;;;4.35;2.10;;;;;;;;;;5068601;28;20194;-75
2022/02/26 04:48:19;;;;;;;8.65;2.75;;;;;;;;;;5059329;28;20240;-78
2022/02/26 04:50:46;;;;;;;3.67;2.33;;;;;;;;;;5063794;28;20192;-76
2022/02/26 04:53:13;;;;;;;6.40;2.90;;;;;;;;;;5064809;28;20197;-76
2022/02/26 04:55:40;;;;;;;5.65;3.88;;;;;;;;;;5068465;28;20195;-76
2022/02/26 04:58:10;;;;;;;7.38;2.50;;;;;;;;;;5064485;28;20195;-79
2022/02/26 05:00:37;;;;;;;4.95;1.85;;;;;;;;;;5064067;28;20731;-76
2022/02/26 05:03:05;;;;;;;8.23;3.97;;;;;;;;;;5060028;28;20248;-76
2022/02/26 05:05:32;;;;;;;5.18;2.40;;;;;;;;;;5066253;28;20190;-79
2022/02/26 05:07:59;;;;;;;13.93;5.13;;;;;;;;;;5063369;28;20293;-76
2022/02/26 05:10:26;;;;;;;7.57;2.72;;;;;;;;;;5061845;28;20578;-76
2022/02/26 05:12:53;;;;;;;5.32;2.72;;;;;;;;;;5058000;28;20646;-75
2022/02/26 05:15:22;;;;;;;8.52;2.60;;;;;;;;;;5068410;28;20676;-76
2022/02/26 05:17:49;;;;;;;4.00;2.42;;;;;;;;;;5069400;28;20282;-79
2022/02/26 05:20:16;;;;;;;5.32;3.03;;;;;;;;;;5050240;28;20203;-75
2022/02/26 05:22:43;;;;;;;5.50;2.40;;;;;;;;;;5056554;28;20209;-75
2022/02/26 05:25:11;;;;;;;4.50;2.63;;;;;;;;;;5067138;28;20214;-77
2022/02/26 05:27:40;;;;;;;5.07;2.88;;;;;;;;;;5066416;28;20194;-75
2022/02/26 05:30:08;;;;;;;6.07;3.63;;;;;;;;;;5064914;28;20222;-75
2022/02/26 05:32:37;;;;;;;4.63;2.80;;;;;;;;;;5061453;28;20683;-75
2022/02/26 05:35:04;;;;;;;5.05;3.00;;;;;;;;;;5064527;28;20194;-78
2022/02/26 05:37:31;;;;;;;5.75;3.28;;;;;;;;;;5065091;28;20194;-75
2022/02/26 05:39:58;;;;;;;7.82;3.50;;;;;;;;;;5065642;28;20660;-81
2022/02/26 05:42:25;;;;;;;6.20;3.58;;;;;;;;;;5066863;28;20199;-75
2022/02/26 05:44:52;;;;;;;9.10;3.70;;;;;;;;;;5073914;28;20281;-75
2022/02/26 05:47:19;;;;;;;5.55;3.10;;;;;;;;;;5062150;28;20195;-75
2022/02/26 05:49:48;;;;;;;6.22;3.30;;;;;;;;;;5060320;28;20225;-76
2022/02/26 05:52:15;;;;;;;4.20;2.90;;;;;;;;;;5061120;28;20214;-75
2022/02/26 05:54:42;;;;;;;9.60;4.40;;;;;;;;;;5050476;28;20202;-76
2022/02/26 05:57:09;;;;;;;5.47;3.60;;;;;;;;;;5061736;28;20202;-75
2022/02/26 05:59:36;;;;;;;7.82;4.38;;;;;;;;;;5063897;28;20195;-76
2022/02/26 06:02:03;;;;;;;4.78;2.88;;;;;;;;;;5067802;28;20197;-73
2022/02/26 06:04:30;;;;;;;11.55;3.67;;;;;;;;;;5061215;28;20202;-77
2022/02/26 06:06:59;;;;;;;6.15;3.65;;;;;;;;;;5059829;28;20217;-75
2022/02/26 06:09:26;;;;;;;8.30;5.15;;;;;;;;;;5062839;28;20225;-78
2022/02/26 06:11:53;;;;;;;4.65;3.47;;;;;;;;;;5055859;28;20396;-75
2022/02/26 06:14:20;;;;;;;8.07;3.83;;;;;;;;;;5065771;28;20197;-78
2022/02/26 06:16:47;;;;;;;15.30;5.78;;;;;;;;;;5064386;28;20194;-75
2022/02/26 06:19:14;;;;;;;9.70;4.70;;;;;;;;;;5063546;28;20198;-74
2022/02/26 06:21:41;;;;;;;5.43;4.18;;;;;;;;;;5066177;28;20679;-75
2022/02/26 06:24:10;;;;;;;8.02;3.65;;;;;;;;;;5061100;28;20191;-77
2022/02/26 06:26:37;;;;;;;5.72;4.03;;;;;;;;;;5050677;28;20215;-80
2022/02/26 06:29:04;;;;;;;7.60;4.45;;;;;;;;;;5061251;28;20222;-75
2022/02/26 06:31:31;;;;;;;8.10;4.18;;;;;;;;;;5067800;28;20205;-75
2022/02/26 06:33:58;;;;;;;8.18;5.00;;;;;;;;;;5058612;28;20206;-74
2022/02/26 06:36:25;;;;;;;8.35;5.30;;;;;;;;;;5066210;28;20199;-75
2022/02/26 06:38:52;;;;;;;9.13;4.68;;;;;;;;;;5051453;28;20199;-77
2022/02/26 06:41:21;;;;;;;7.53;4.85;;;;;;;;;;5064315;28;20556;-75
2022/02/26 06:43:48;;;;;;;7.18;4.28;;;;;;;;;;5068299;28;20198;-74
2022/02/26 06:46:15;;;;;;;5.18;4.10;;;;;;;;;;5057999;28;20278;-74
2022/02/26 06:48:42;;;;;;;8.93;5.30;;;;;;;;;;5060736;28;20191;-74
2022/02/26 06:51:09;;;;;;;8.10;4.18;;;;;;;;;;5069738;28;20198;-81
2022/02/26 06:53:36;;;;;;;8.82;4.25;;;;;;;;;;5068568;28;20195;-76
2022/02/26 06:56:03;;;;;;;11.23;5.50;;;;;;;;;;5071045;28;20194;-78
2022/02/26 06:58:32;;;;;;;7.82;4.45;;;;;;;;;;5067668;28;20190;-77
2022/02/26 07:00:59;;;;;;;6.90;4.70;;;;;;;;;;5058993;28;20213;-77
2022/02/26 07:03:26;;;;;;;8.00;4.57;;;;;;;;;;5066526;28;20190;-75
2022/02/26 07:05:53;;;;;;;10.85;5.50;;;;;;;;;;5062097;28;20196;-79
2022/02/26 07:08:20;;;;;;;7.07;4.53;;;;;;;;;;5065151;28;20194;-77
2022/02/26 07:10:47;;;;;;;8.18;4.78;;;;;;;;;;5063982;28;20221;-78
2022/02/26 07:13:14;;;;;;;8.10;4.07;;;;;;;;;;5066070;28;20191;-77
2022/02/26 07:15:43;;;;;;;5.40;4.55;;;;;;;;;;5057648;28;20605;-77
2022/02/26 07:18:10;;;;;;;7.88;4.75;;;;;;;;;;5070454;28;20198;-76
2022/02/26 07:20:37;;;;;;;7.63;4.75;;;;;;;;;;5063097;28;20248;-75
2022/02/26 07:23:04;;;;;;;4.82;4.22;;;;;;;;;;5071119;28;20198;-76
2022/02/26 07:25:32;;;;;;;9.73;4.63;;;;;;;;;;5062988;28;20218;-75
2022/02/26 07:27:59;;;;;;;9.05;4.72;;;;;;;;;;5063006;28;20191;-75
2022/02/26 07:30:26;;;;;;;10.93;4.50;;;;;;;;;;5067152;28;20218;-75
2022/02/26 07:32:54;;;;;;;10.93;4.78;;;;;;;;;;5065436;28;20222;-77
2022/02/26 07:35:21;;;;;;;8.50;5.35;;;;;;;;;;5065152;28;20320;-76
2022/02/26 07:37:49;;;;;;;7.38;5.03;;;;;;;;;;5065267;28;20199;-76
2022/02/26 07:40:16;;;;;;;18.80;5.65;;;;;;;;;;5068144;28;20194;-81
2022/02/26 07:42:43;;;;;;;8.13;4.55;;;;;;;;;;5067706;28;20202;-77
2022/02/26 07:45:10;;;;;;;6.38;5.03;;;;;;;;;;5062375;28;20197;-79
2022/02/26 07:47:37;;;;;;;9.00;4.82;;;;;;;;;;5061482;28;20187;-75
2022/02/26 07:50:06;;;;;;;8.27;4.47;;;;;;;;;;5068533;28;20213;-76
2022/02/26 07:52:33;;;;;;;6.75;4.53;;;;;;;;;;5066835;28;20191;-75
2022/02/26 07:55:02;;;;;;;9.50;5.18;;;;;;;;;;5063091;28;20194;-75
2022/02/26 07:57:29;;;;;;;16.75;6.68;;;;;;;;;;5071814;28;20604;-75
2022/02/26 07:59:56;;;;;;;7.18;5.38;;;;;;;;;;5059484;28;20195;-76
2022/02/26 08:02:24;;;;;;;5.38;4.18;;;;;;;;;;5070749;28;20191;-75
2022/02/26 08:04:51;;;;;;;7.45;4.53;;;;;;;;;;5068712;28;20684;-75
2022/02/26 08:07:19;;;;;;;7.97;4.75;;;;;;;;;;5070129;28;20828;-74
2022/02/26 08:09:46;;;;;;;11.57;4.63;;;;;;;;;;5069410;28;20220;-75
2022/02/26 08:12:14;;;;;;;4.85;4.05;;;;;;;;;;5065455;28;20293;-74
2022/02/26 08:14:42;;;;;;;11.45;6.00;;;;;;;;;;5070632;28;20194;-77
2022/02/26 08:17:09;;;;;;;11.30;5.45;;;;;;;;;;5070465;28;20201;-74
2022/02/26 08:19:36;;;;;;;10.25;6.93;;;;;;;;;;5065489;28;20202;-77
2022/02/26 08:22:04;;;;;;;8.63;6.47;;;;;;;;;;5066849;28;20201;-74
2022/02/26 08:24:32;;;;;;;12.10;6.82;;;;;;;;;;5067814;28;20205;-75
2022/02/26 08:26:59;;;;;;;10.48;6.95;;;;;;;;;;5069905;28;20230;-74
2022/02/26 08:29:26;;;;;;;10.40;7.07;;;;;;;;;;5055934;28;20218;-76
2022/02/26 08:31:53;;;;;;;18.20;7.30;;;;;;;;;;5057253;28;20198;-74
2022/02/26 08:34:22;;;;;;;8.23;6.07;;;;;;;;;;5064945;28;20191;-76
2022/02/26 08:36:49;;;;;;;10.00;6.38;;;;;;;;;;5064009;28;20198;-74
2022/02/26 08:39:17;;;;;;;7.28;5.30;;;;;;;;;;5061601;28;20194;-76
2022/02/26 08:41:45;;;;;;;12.32;7.13;;;;;;;;;;5062888;28;20190;-74
2022/02/26 08:44:12;;;;;;;12.35;8.23;;;;;;;;;;5061121;28;20198;-76
2022/02/26 08:46:39;;;;;;;8.57;6.00;;;;;;;;;;5069311;28;20229;-76
2022/02/26 08:49:06;;;;;;;8.77;6.45;;;;;;;;;;5067812;28;20198;-74
2022/02/26 08:51:33;;;;;;;5.97;5.38;;;;;;;;;;5064567;28;20195;-74
2022/02/26 08:54:00;;;;;;;9.65;6.30;;;;;;;;;;5070385;28;20196;-73
2022/02/26 08:56:28;;;;;;;11.30;7.03;;;;;;;;;;5068086;28;20568;-74
2022/02/26 08:58:57;;;;;;;14.82;7.15;;;;;;;;;;5065548;28;20212;-74
2022/02/26 09:01:25;;;;;;;10.35;6.90;;;;;;;;;;5064918;28;20191;-74
2022/02/26 09:03:52;;;;;;;12.10;6.18;;;;;;;;;;5059509;28;20195;-74
2022/02/26 09:06:19;;;;;;;8.98;6.68;;;;;;;;;;5069801;28;20198;-74
2022/02/26 09:08:47;;;;;;;10.60;5.95;;;;;;;;;;5062234;28;20669;-75
2022/02/26 09:11:14;;;;;;;9.77;6.75;;;;;;;;;;5057371;28;20218;-74
2022/02/26 09:13:42;;;;;;;8.57;6.00;;;;;;;;;;5067203;28;20225;-76
2022/02/26 09:16:11;;;;;;;11.85;5.97;;;;;;;;;;5067231;28;20530;-76
2022/02/26 09:18:38;;;;;;;6.35;5.22;;;;;;;;;;5061875;28;20205;-74
2022/02/26 09:21:06;;;;;;;6.85;5.65;;;;;;;;;;5070031;28;20198;-77
2022/02/26 09:23:33;;;;;;;6.72;5.53;;;;;;;;;;5069393;28;20649;-75
2022/02/26 09:26:04;;;;;;;7.47;5.13;;;;;;;;;;5059196;28;20214;-74
2022/02/26 09:28:31;;;;;;;7.90;6.13;;;;;;;;;;5065869;28;20190;-74
2022/02/26 09:30:58;;;;;;;6.88;5.40;;;;;;;;;;5066948;28;20324;-74
2022/02/26 09:33:27;;;;;;;8.20;5.65;;;;;;;;;;5069750;28;20196;-77
2022/02/26 09:35:54;;;;;;;7.03;5.35;;;;;;;;;;5066589;28;20203;-74
2022/02/26 09:38:21;;;;;;;7.45;6.25;;;;;;;;;;5071197;28;20186;-74
2022/02/26 09:40:49;;;;;;;9.77;7.18;;;;;;;;;;5068925;28;20202;-74
2022/02/26 09:43:16;;;;;;;6.03;5.45;;;;;;;;;;5064590;28;20209;-77
2022/02/26 09:45:43;;;;;;;7.50;5.47;;;;;;;;;;5060644;28;20218;-74
2022/02/26 09:48:10;;;;;;;5.78;5.28;;;;;;;;;;5062898;28;20205;-76
2022/02/26 09:50:40;;;;;;;7.40;5.80;;;;;;;;;;5055928;28;20233;-76
2022/02/26 09:53:08;;;;;;;5.07;4.57;;;;;;;;;;5068751;28;20195;-74
2022/02/26 09:55:36;;;;;;;9.13;5.90;;;;;;;;;;5064719;28;20190;-76
2022/02/26 09:58:03;;;;;;;6.93;5.60;;;;;;;;;;5048061;28;20201;-75
2022/02/26 10:00:30;;;;;;;6.57;5.18;;;;;;;;;;5051911;28;20194;-76
2022/02/26 10:02:58;;;;;;;6.45;5.38;;;;;;;;;;5060884;28;20202;-74
2022/02/26 10:05:25;;;;;;;7.50;5.28;;;;;;;;;;5061928;28;20198;-75
2022/02/26 10:07:53;;;;;;;6.75;5.18;;;;;;;;;;5056578;28;20206;-75
2022/02/26 10:10:21;;;;;;;7.43;5.25;;;;;;;;;;5055705;28;20224;-76
2022/02/26 10:12:51;;;;;;;10.35;6.22;;;;;;;;;;5055480;28;20206;-78
2022/02/26 10:15:23;;;;;;;8.43;5.28;;;;;;;;;;5056331;28;20611;-76
2022/02/26 10:17:58;;;;;;;6.60;5.43;;;;;;;;;;5052477;28;20197;-79
2022/02/26 10:20:26;;;;;;;7.85;6.15;;;;;;;;;;5056671;28;20197;-76
2022/02/26 10:22:55;;;;;;;10.50;6.50;;;;;;;;;;5052606;28;20206;-84
2022/02/26 10:25:24;;;;;;;7.13;5.65;;;;;;;;;;5056065;28;20227;-79
2022/02/26 10:27:52;;;;;;;7.55;6.25;;;;;;;;;;5058040;28;20560;-75
2022/02/26 10:30:22;;;;;;;10.13;5.32;;;;;;;;;;5054834;28;20238;-75
2022/02/26 10:33:04;;;;;;;11.27;6.47;;;;;;;;;;5055766;28;20736;-75
2022/02/26 10:35:35;;;;;;;8.15;6.35;;;;;;;;;;5054727;28;20497;-76
2022/02/26 10:38:12;;;;;;;10.02;6.55;;;;;;;;;;5057795;28;20197;-76
2022/02/26 10:40:47;;;;;;;9.05;6.68;;;;;;;;;;5055791;28;20723;-75
2022/02/26 10:43:14;;;;;;;8.77;6.38;;;;;;;;;;5054642;28;20435;-76
2022/02/26 10:45:41;;;;;;;9.75;6.32;;;;;;;;;;5058742;28;20210;-74
2022/02/26 10:48:08;;;;;;;6.68;5.65;;;;;;;;;;5056925;28;20199;-76
2022/02/26 10:50:35;;;;;;;7.97;6.70;;;;;;;;;;5054845;28;20213;-77
2022/02/26 10:53:03;;;;;;;12.73;6.55;;;;;;;;;;5056294;28;20289;-77
2022/02/26 10:55:49;;;;;;;9.40;6.93;;;;;;;;;;5057688;28;20199;-77
2022/02/26 10:58:19;;;;;;;9.82;6.95;;;;;;;;;;5065049;28;20716;-76
2022/02/26 11:00:47;;;;;;;9.48;6.05;;;;;;;;;;5063033;28;20611;-75
2022/02/26 11:03:16;;;;;;;7.30;5.68;;;;;;;;;;5057548;28;20194;-73
2022/02/26 11:05:43;;;;;;;9.00;7.10;;;;;;;;;;5062772;28;20194;-75
2022/02/26 11:08:12;;;;;;;7.00;5.43;;;;;;;;;;5057426;28;20550;-74
2022/02/26 11:10:39;;;;;;;12.38;8.07;;;;;;;;;;5053083;28;20206;-77
2022/02/26 11:13:06;;;;;;;8.88;6.35;;;;;;;;;;5046935;28;20216;-73
2022/02/26 11:15:36;;;;;;;12.15;7.10;;;;;;;;;;5046418;28;20573;-74
2022/02/26 11:18:06;;;;;;;13.43;7.40;;;;;;;;;;5055068;28;20198;-74
2022/02/26 11:20:35;;;;;;;12.57;7.28;;;;;;;;;;5060297;28;20206;-78
2022/02/26 11:23:02;;;;;;;11.40;7.65;;;;;;;;;;5057196;28;20289;-76
2022/02/26 11:25:29;;;;;;;13.43;7.60;;;;;;;;;;5052692;28;20601;-76
2022/02/26 11:27:56;;;;;;;11.98;7.32;;;;;;;;;;5058175;28;20929;-75
2022/02/26 11:30:26;;;;;;;11.18;7.13;;;;;;;;;;5064081;28;20216;-76
2022/02/26 11:32:54;;;;;;;14.77;8.15;;;;;;;;;;5060561;28;20209;-75
2022/02/26 11:35:24;;;;;;;13.15;7.22;;;;;;;;;;5052557;28;20194;-76
2022/02/26 11:37:52;;;;;;;10.38;7.45;;;;;;;;;;5062039;28;20661;-77
2022/02/26 11:40:19;;;;;;;14.63;8.00;;;;;;;;;;5058734;28;20194;-74
2022/02/26 11:42:47;;;;;;;11.23;6.75;;;;;;;;;;5059715;28;20206;-76
2022/02/26 11:45:19;;;;;;;15.65;7.53;;;;;;;;;;5058863;28;20202;-75
2022/02/26 11:47:51;;;;;;;16.98;8.18;;;;;;;;;;5058059;28;20202;-77
2022/02/26 11:50:21;;;;;;;15.48;7.75;;;;;;;;;;5050344;28;20679;-75
2022/02/26 11:52:50;;;;;;;13.35;8.00;;;;;;;;;;5067177;28;20206;-75
2022/02/26 11:55:34;;;;;;;10.02;6.40;;;;;;;;;;5062527;28;20209;-76
2022/02/26 11:58:02;;;;;;;11.38;6.82;;;;;;;;;;5066913;28;20194;-75
2022/02/26 12:00:31;;;;;;;12.27;6.93;;;;;;;;;;5062039;28;20217;-77
2022/02/26 12:03:17;;;;;;;11.05;5.25;;;;;;;;;;5055441;28;20198;-75
2022/02/26 12:05:46;;;;;;;11.63;6.72;;;;;;;;;;5064823;28;20205;-74
2022/02/26 12:08:14;;;;;;;9.00;5.50;;;;;;;;;;5069255;28;20206;-75
2022/02/26 12:10:53;;;;;;;13.00;5.80;;;;;;;;;;5056324;28;20222;-75
2022/02/26 12:13:24;;;;;;;11.15;5.72;;;;;;;;;;5063153;28;20194;-76
2022/02/26 12:16:06;;;;;;;12.20;5.95;;;;;;;;;;5062417;28;20557;-75
2022/02/26 12:18:40;;;;;;;8.30;5.75;;;;;;;;;;5063116;28;20190;-74
2022/02/26 12:21:10;;;;;;;11.50;5.40;;;;;;;;;;5067417;28;20275;-74
2022/02/26 12:23:38;;;;;;;8.75;5.63;;;;;;;;;;5071911;28;20198;-75
2022/02/26 12:26:08;;;;;;;11.50;4.97;;;;;;;;;;5066790;28;20279;-75
2022/02/26 12:28:35;;;;;;;7.32;4.32;;;;;;;;;;5064989;28;20289;-76
2022/02/26 12:31:03;;;;;;;9.70;5.47;;;;;;;;;;5067548;28;20217;-76
2022/02/26 12:33:37;;;;;;;7.50;4.88;;;;;;;;;;5054221;28;20198;-79
2022/02/26 12:36:08;;;;;;;10.70;5.00;;;;;;;;;;5069411;28;20194;-75
2022/02/26 12:38:47;;;;;;;11.75;4.50;;;;;;;;;;5070843;28;20194;-74
2022/02/26 12:41:28;;;;;;;9.60;5.68;;;;;;;;;;5056358;28;20540;-76
2022/02/26 12:43:55;;;;;;;10.38;4.75;;;;;;;;;;5061454;28;20673;-76
2022/02/26 12:46:22;;;;;;;7.50;3.80;;;;;;;;;;5061290;28;20190;-75
2022/02/26 12:48:49;;;;;;;7.15;3.95;;;;;;;;;;5061277;28;20573;-78
2022/02/26 12:51:16;;;;;;;9.02;4.80;;;;;;;;;;5065850;28;20218;-77
2022/02/26 12:53:46;;;;;;;8.90;4.43;;;;;;;;;;5068294;28;20198;-76
2022/02/26 12:56:13;;;;;;;5.95;2.97;;;;;;;;;;5058589;28;20199;-75
2022/02/26 12:58:40;;;;;;;9.65;4.10;;;;;;;;;;5062642;28;20198;-75
2022/02/26 13:01:07;;;;;;;5.28;3.40;;;;;;;;;;5054162;28;20288;-77
2022/02/26 13:03:34;;;;;;;9.18;4.13;;;;;;;;;;5062484;28;20191;-75
2022/02/26 13:06:10;;;;;;;7.05;3.38;;;;;;;;;;5064363;28;20755;-74
2022/02/26 13:08:37;;;;;;;5.75;4.18;;;;;;;;;;5056614;28;20646;-76
2022/02/26 13:11:06;;;;;;;8.90;4.95;;;;;;;;;;5059124;28;20692;-76
2022/02/26 13:13:33;;;;;;;9.02;3.55;;;;;;;;;;5065918;28;20882;-74
2022/02/26 13:16:02;;;;;;;5.47;2.95;;;;;;;;;;5062938;28;20580;-75
2022/02/26 13:18:30;;;;;;;8.70;3.67;;;;;;;;;;5060280;28;20207;-76
2022/02/26 13:20:58;;;;;;;8.55;2.85;;;;;;;;;;5066154;28;20198;-74
2022/02/26 13:23:26;;;;;;;10.38;2.88;;;;;;;;;;5064515;28;20198;-79
2022/02/26 13:25:55;;;;;;;6.40;2.70;;;;;;;;;;5064876;28;20804;-75
2022/02/26 13:28:24;;;;;;;7.88;2.92;;;;;;;;;;5067449;28;20193;-76
2022/02/26 13:30:54;;;;;;;5.18;3.35;;;;;;;;;;5061074;28;20684;-75
2022/02/26 13:33:21;;;;;;;12.52;4.38;;;;;;;;;;5059605;28;20198;-79
2022/02/26 13:35:48;;;;;;;7.20;3.40;;;;;;;;;;5060558;28;20616;-76
2022/02/26 13:38:17;;;;;;;7.97;2.80;;;;;;;;;;5066931;28;20264;-75
2022/02/26 13:40:44;;;;;;;8.80;2.78;;;;;;;;;;5053985;28;20218;-76
2022/02/26 13:43:11;;;;;;;6.85;2.78;;;;;;;;;;5057327;28;20210;-74
2022/02/26 13:45:41;;;;;;;3.55;2.90;;;;;;;;;;5060981;28;20198;-74
2022/02/26 13:48:15;;;;;;;7.60;3.40;;;;;;;;;;5060192;28;20618;-76
2022/02/26 13:50:42;;;;;;;6.53;2.90;;;;;;;;;;5060857;28;20194;-75
2022/02/26 13:53:09;;;;;;;5.28;3.40;;;;;;;;;;5055234;28;20202;-81
2022/02/26 13:55:36;;;;;;;12.88;4.35;;;;;;;;;;5064103;28;20194;-76
2022/02/26 13:58:03;;;;;;;5.43;2.88;;;;;;;;;;5063646;28;20202;-78
2022/02/26 14:00:31;;;;;;;6.25;2.78;;;;;;;;;;5056300;28;20198;-74
2022/02/26 14:03:00;;;;;;;4.20;2.75;;;;;;;;;;5056449;28;20209;-74
2022/02/26 14:05:28;;;;;;;5.65;2.95;;;;;;;;;;5068839;28;20194;-78
2022/02/26 14:07:55;;;;;;;7.93;3.03;;;;;;;;;;5067048;28;20797;-76
2022/02/26 14:10:23;;;;;;;5.35;2.78;;;;;;;;;;5061685;28;20198;-74
2022/02/26 14:12:51;;;;;;;7.35;2.90;;;;;;;;;;5059083;28;20305;-75
2022/02/26 14:15:19;;;;;;;6.18;3.22;;;;;;;;;;5053880;28;20195;-74
2022/02/26 14:17:47;;;;;;;5.47;2.63;;;;;;;;;;5069102;28;20195;-74
2022/02/26 14:20:16;;;;;;;3.65;2.05;;;;;;;;;;5063157;28;20194;-76
2022/02/26 14:22:43;;;;;;;8.40;3.90;;;;;;;;;;5065574;28;20198;-74
2022/02/26 14:25:10;;;;;;;5.95;3.97;;;;;;;;;;5064909;28;20215;-76
2022/02/26 14:27:45;;;;;;;5.93;2.85;;;;;;;;;;5055789;28;20649;-75
2022/02/26 14:30:13;;;;;;;3.58;2.55;;;;;;;;;;5060524;28;20194;-75
2022/02/26 14:32:41;;;;;;;5.57;1.85;;;;;;;;;;5066029;28;20219;-74
2022/02/26 14:35:09;;;;;;;5.15;2.00;;;;;;;;;;5063826;28;20204;-74
2022/02/26 14:37:38;;;;;;;8.18;2.30;;;;;;;;;;5062842;28;20202;-74
2022/02/26 14:40:06;;;;;;;4.45;2.22;;;;;;;;;;5063981;28;20632;-73
2022/02/26 14:42:34;;;;;;;5.70;2.50;;;;;;;;;;5061824;28;20211;-75
2022/02/26 14:45:01;;;;;;;9.15;2.50;;;;;;;;;;5061218;28;20223;-74